Time;durP1;ratioP1;P1;durP2;ratioP2;P2;SDS_P1;SDS_P2;PMS_P1;PMS_P2;Temp;Humidity;BMP_temperature;BMP_pressure;BME280_temperature;BME280_humidity;BME280_pressure;Samples;Min_cycle;Max_cycle;Signal;HPM_P1;HPM_P2
2022/06/02 00:01:47;;;;;;;14.60;10.15;;;;;;;7.42;87.43;101970.13;4954557;29;20123;-83
2022/06/02 00:04:37;;;;;;;14.88;10.82;;;;;;;7.24;87.61;101949.28;4954933;29;20090;-84
2022/06/02 00:07:23;;;;;;;16.90;10.85;;;;;;;6.88;87.41;101893.03;4954927;29;20435;-89
2022/06/02 00:10:10;;;;;;;15.38;11.48;;;;;;;6.54;87.69;101844.44;4954327;28;20468;-90
2022/06/02 00:13:18;;;;;;;15.30;10.88;;;;;;;5.94;87.82;101759.00;4954849;28;20129;-85
2022/06/02 00:16:04;;;;;;;17.25;11.95;;;;;;;5.87;87.68;101752.31;4954363;29;20074;-90
2022/06/02 00:18:51;;;;;;;15.70;11.73;;;;;;;7.17;88.26;101984.59;4954729;29;20454;-90
2022/06/02 00:21:36;;;;;;;15.13;11.25;;;;;;;7.23;88.60;101988.72;5001121;28;20120;-87
2022/06/02 00:24:40;;;;;;;16.10;11.85;;;;;;;7.18;88.54;101992.28;5034680;28;20033;-88
2022/06/02 00:27:09;;;;;;;14.68;11.65;;;;;;;7.12;88.58;101999.31;4954412;29;20039;-87
2022/06/02 00:29:52;;;;;;;15.70;11.32;;;;;;;7.10;89.05;101996.81;4954327;29;20058;-90
2022/06/02 00:32:31;;;;;;;14.75;11.63;;;;;;;6.69;88.82;101933.84;4954325;29;20045;-85
2022/06/02 00:35:04;;;;;;;15.98;11.20;;;;;;;7.00;88.97;101995.41;4954361;29;20395;-89
2022/06/02 00:37:33;;;;;;;15.77;11.40;;;;;;;6.97;88.84;102004.91;4954176;29;20087;-88
2022/06/02 00:40:00;;;;;;;14.95;11.35;;;;;;;6.74;88.75;101977.31;4938168;29;20045;-89
2022/06/02 00:42:25;;;;;;;16.48;12.10;;;;;;;6.89;89.36;102007.72;4953877;28;20055;-88
2022/06/02 00:44:59;;;;;;;16.80;12.60;;;;;;;6.85;89.61;102012.06;4954065;29;20039;-89
2022/06/02 00:47:42;;;;;;;16.52;11.35;;;;;;;6.82;89.26;102003.63;4954066;29;20043;-89
2022/06/02 00:50:23;;;;;;;18.40;12.88;;;;;;;6.76;89.29;102008.94;4953976;29;20504;-89
2022/06/02 00:53:13;;;;;;;17.70;12.03;;;;;;;6.47;89.10;101971.22;4954047;29;20415;-90
2022/06/02 00:59:09;;;;;;;16.38;11.35;;;;;;;6.63;89.35;102005.88;4934602;29;20043;-89
2022/06/02 01:01:36;;;;;;;17.25;12.35;;;;;;;6.57;89.73;102008.59;4934792;29;20591;-90
2022/06/02 01:07:21;;;;;;;15.70;10.93;;;;;;;5.54;89.83;101832.69;4973153;28;20506;-86
2022/06/02 01:10:20;;;;;;;18.13;12.30;;;;;;;6.61;90.42;102005.06;4972715;28;20097;-89
2022/06/02 01:13:14;;;;;;;15.60;11.90;;;;;;;6.21;90.31;101948.88;4972745;28;20158;-87
2022/06/02 01:15:53;;;;;;;17.13;12.40;;;;;;;6.35;90.70;101969.00;4972377;28;20043;-89
2022/06/02 01:18:45;;;;;;;17.45;12.85;;;;;;;6.47;90.42;102005.44;4956717;28;20372;-86
2022/06/02 01:21:44;;;;;;;17.90;13.00;;;;;;;6.47;90.94;101999.47;4956325;28;20055;-88
2022/06/02 01:24:29;;;;;;;18.65;13.55;;;;;;;5.89;90.90;101922.31;4972677;28;20085;-87
2022/06/02 01:27:09;;;;;;;19.30;14.35;;;;;;;6.34;90.89;102004.09;4956205;28;20493;-84
2022/06/02 01:30:12;;;;;;;20.60;14.07;;;;;;;6.31;90.51;102002.47;4972516;28;20046;-85
2022/06/02 01:32:54;;;;;;;20.55;13.48;;;;;;;6.00;90.18;101963.94;4972583;28;20026;-89
2022/06/02 01:35:34;;;;;;;18.38;13.65;;;;;;;6.01;90.72;101969.91;5004060;28;20061;-89
2022/06/02 01:38:11;;;;;;;17.15;12.60;;;;;;;6.08;90.28;101985.97;5033326;28;20414;-89
2022/06/02 01:40:44;;;;;;;18.13;13.40;;;;;;;6.22;90.29;102010.38;5033290;28;20037;-88
2022/06/02 01:43:17;;;;;;;18.40;13.20;;;;;;;5.94;90.38;101965.81;5033095;28;20123;-89
2022/06/02 01:46:23;;;;;;;19.50;13.93;;;;;;;6.21;90.65;102010.44;5033160;28;20366;-89
2022/06/02 01:48:48;;;;;;;19.55;13.73;;;;;;;6.18;90.88;102005.34;5015413;28;20029;-89
2022/06/02 01:51:30;;;;;;;22.02;15.27;;;;;;;5.66;90.95;101928.03;5033493;28;20021;-87
2022/06/02 01:53:58;;;;;;;20.13;14.10;;;;;;;6.11;90.86;102004.69;5033179;28;20029;-89
2022/06/02 01:56:49;;;;;;;18.58;12.80;;;;;;;6.09;91.14;102003.03;5033037;28;20028;-88
2022/06/02 01:59:43;;;;;;;18.88;13.63;;;;;;;6.05;91.13;102004.84;5033555;28;20037;-89
2022/06/02 02:02:23;;;;;;;18.88;13.75;;;;;;;5.83;91.40;101973.75;5033319;28;20382;-89
2022/06/02 02:05:02;;;;;;;19.77;14.15;;;;;;;5.57;91.31;101932.53;5015276;28;20044;-90
2022/06/02 02:08:00;;;;;;;19.27;13.88;;;;;;;5.66;91.49;101953.66;5032879;28;20037;-89
2022/06/02 02:10:46;;;;;;;21.35;14.60;;;;;;;5.38;90.60;101916.75;5028742;28;20064;-90
2022/06/02 02:13:20;;;;;;;19.35;14.57;;;;;;;5.83;91.05;101995.97;5015322;28;20108;-89
2022/06/02 02:16:12;;;;;;;19.27;13.77;;;;;;;5.83;91.56;102003.66;5014673;28;20087;-90
2022/06/02 02:19:00;;;;;;;;;;;;;;;5.85;89.96;102004.47;5033160;28;20036;-85
2022/06/02 02:21:43;;;;;;;21.65;13.70;;;;;;;5.80;91.50;102012.28;4991234;28;19920;-89
2022/06/02 02:24:32;;;;;;;19.15;14.07;;;;;;;5.83;91.42;102012.19;4991231;28;20042;-88
2022/06/02 02:27:00;;;;;;;19.25;14.25;;;;;;;5.78;91.41;102010.59;4952157;29;20182;-89
2022/06/02 02:30:03;;;;;;;21.90;14.95;;;;;;;5.74;91.96;102014.97;4952409;29;20132;-89
2022/06/02 02:32:49;;;;;;;19.45;14.30;;;;;;;5.68;92.19;102012.53;4952467;28;20415;-89
2022/06/02 02:35:27;;;;;;;19.95;14.80;;;;;;;5.33;92.76;101963.00;4936714;28;20180;-88
2022/06/02 02:37:58;;;;;;;20.58;14.60;;;;;;;4.59;92.26;101858.81;4952176;28;20391;-89
2022/06/02 02:40:32;;;;;;;20.42;14.35;;;;;;;5.59;92.01;102021.28;4952318;28;20431;-89
2022/06/02 02:43:38;;;;;;;21.30;15.50;;;;;;;5.48;92.17;102005.31;4952269;28;20051;-82
2022/06/02 02:46:35;;;;;;;21.42;14.48;;;;;;;5.57;92.32;102023.06;4895526;29;20039;-88
2022/06/02 02:49:07;;;;;;;24.85;16.23;;;;;;;5.32;92.96;101986.91;4889887;29;20104;-88
2022/06/02 02:52:09;;;;;;;22.77;15.70;;;;;;;5.61;93.46;102026.41;4894878;29;20051;-89
2022/06/02 02:54:43;;;;;;;26.05;17.40;;;;;;;5.18;93.57;101953.91;4895371;29;20029;-88
2022/06/02 02:57:25;;;;;;;25.33;17.85;;;;;;;5.63;93.30;102032.34;4895333;29;20509;-88
2022/06/02 03:00:43;;;;;;;26.35;17.17;;;;;;;5.62;93.52;102034.06;4895067;29;20048;-89
2022/06/02 03:04:02;;;;;;;24.15;17.45;;;;;;;5.60;93.56;102043.47;4907128;28;20046;-87
2022/06/02 03:07:14;;;;;;;;;;;;;;;;;;;;;
2022/06/02 03:13:55;;;;;;;25.20;17.15;;;;;;;5.55;93.28;102049.59;4971575;28;20130;-86
2022/06/02 03:17:00;;;;;;;28.10;19.08;;;;;;;5.52;93.80;102045.38;4971299;28;20507;-90
2022/06/02 03:20:08;;;;;;;26.02;19.02;;;;;;;5.50;93.77;102054.81;4987543;28;20054;-88
2022/06/02 03:22:58;;;;;;;27.58;18.23;;;;;;;5.47;93.16;102049.75;4987955;28;20041;-86
2022/06/02 03:26:03;;;;;;;25.38;17.83;;;;;;;4.33;93.55;101866.22;5014233;28;20026;-87
2022/06/02 03:29:02;;;;;;;25.50;17.75;;;;;;;5.42;93.33;102057.56;5033334;28;20108;-84
2022/06/02 03:31:39;;;;;;;25.30;17.50;;;;;;;5.38;93.63;102055.91;5017879;28;20030;-88
2022/06/02 03:34:24;;;;;;;25.67;18.20;;;;;;;5.36;93.07;102072.22;5035605;28;20025;-84
2022/06/02 03:37:04;;;;;;;25.48;17.13;;;;;;;5.37;93.66;102072.16;5035591;28;20082;-89
2022/06/02 03:39:49;;;;;;;26.90;18.42;;;;;;;5.37;93.59;102073.88;5035568;28;20037;-86
2022/06/02 03:42:30;;;;;;;26.08;18.13;;;;;;;5.37;93.38;102069.59;5035221;28;20025;-88
2022/06/02 03:45:08;;;;;;;27.15;17.63;;;;;;;5.41;93.47;102078.09;5035462;28;20060;-87
2022/06/02 03:48:04;;;;;;;25.17;18.48;;;;;;;5.41;93.42;102076.38;5017629;28;20025;-86
2022/06/02 03:51:09;;;;;;;28.05;19.13;;;;;;;3.87;93.44;101827.94;5013680;28;20050;-84
2022/06/02 04:03:37;;;;;;;22.88;16.40;;;;;;;5.40;92.99;102058.44;5013627;28;20100;-84
2022/06/02 04:06:48;;;;;;;23.73;16.77;;;;;;;5.60;92.65;102084.47;4954572;29;20035;-86
2022/06/02 04:13:46;;;;;;;22.55;15.43;;;;;;;4.33;92.19;101848.31;4935269;29;20043;-88
2022/06/02 04:16:45;;;;;;;;;;;;;;;5.92;91.28;102088.06;4935414;29;20401;-83
2022/06/02 04:23:19;;;;;;;22.83;16.35;;;;;;;6.13;91.40;102100.38;4952029;29;20042;-84
2022/06/02 04:26:38;;;;;;;22.85;16.48;;;;;;;4.76;91.08;101844.81;4954520;29;20055;-86
2022/06/02 04:36:36;;;;;;;24.50;16.42;;;;;;;9.12;82.62;102101.59;4954455;29;20139;-87
2022/06/02 04:46:53;;;;;;;24.95;18.38;;;;;;;8.30;84.17;102104.44;4954308;29;20062;-89
2022/06/02 04:49:57;;;;;;;26.58;19.60;;;;;;;6.86;85.13;101869.97;5004067;28;20042;-89
2022/06/02 04:53:16;;;;;;;;;;;;;;;;;;;;;
2022/06/02 04:59:46;;;;;;;29.52;20.83;;;;;;;8.48;87.44;102111.59;5014326;28;20044;-89
2022/06/02 05:02:35;;;;;;;30.52;22.30;;;;;;;9.32;84.76;102002.06;4983128;28;20042;-87
2022/06/02 05:05:23;;;;;;;29.60;21.75;;;;;;;11.86;78.17;102005.47;5014066;28;20084;-89
2022/06/02 05:08:13;;;;;;;23.77;18.05;;;;;;;14.57;72.34;102100.56;5013941;28;20113;-83
2022/06/02 05:10:57;;;;;;;29.20;17.55;;;;;;;16.27;66.91;102106.31;5014132;28;20037;-89
2022/06/02 05:13:37;;;;;;;20.52;15.75;;;;;;;17.25;59.70;102068.28;5013840;28;20030;-83
2022/06/02 05:16:27;;;;;;;21.67;16.23;;;;;;;18.61;60.15;102106.94;5013951;28;20026;-88
2022/06/02 05:19:20;;;;;;;18.80;15.88;;;;;;;19.46;58.90;102059.25;4995461;28;20124;-84
2022/06/02 05:22:02;;;;;;;20.40;17.35;;;;;;;20.25;49.40;102107.75;5013789;28;20034;-88
2022/06/02 05:24:48;;;;;;;20.33;17.20;;;;;;;20.61;50.94;102054.00;5013664;28;20390;-84
2022/06/02 05:27:22;;;;;;;20.95;16.85;;;;;;;21.56;46.57;102111.38;4996396;28;20447;-85
2022/06/02 05:29:59;;;;;;;18.10;15.82;;;;;;;21.81;46.37;102060.03;5013798;28;20077;-89
2022/06/02 05:32:48;;;;;;;19.33;15.93;;;;;;;22.51;46.57;102092.16;4996218;28;20057;-85
2022/06/02 05:35:52;;;;;;;19.88;16.10;;;;;;;22.76;47.30;102067.00;5013756;28;20100;-84
2022/06/02 05:38:47;;;;;;;20.67;16.17;;;;;;;22.37;45.30;101926.81;5013611;28;20062;-84
2022/06/02 05:41:43;;;;;;;20.00;16.55;;;;;;;23.72;44.60;102121.78;5013467;28;20080;-84
2022/06/02 05:45:11;;;;;;;;;;;;;;;;;;;;;
2022/06/02 05:48:22;;;;;;;;;;;;;;;;;;;;;
2022/06/02 05:51:07;;;;;;;;;;;;;;;25.18;41.47;102110.50;5031303;28;20063;-89
2022/06/02 05:57:22;;;;;;;18.48;16.40;;;;;;;24.55;41.02;101928.63;5043251;23;20090;-88
2022/06/02 06:00:25;;;;;;;19.98;17.13;;;;;;;25.85;39.98;102123.66;5052525;28;20449;-83
2022/06/02 06:06:29;;;;;;;;;;;;;;;26.42;38.58;102126.28;5053112;28;20507;-86
2022/06/02 06:09:26;;;;;;;17.92;14.93;;;;;;;26.12;37.89;102117.19;5052643;28;19999;-83
2022/06/02 06:12:26;;;;;;;17.02;14.40;;;;;;;26.37;37.58;102124.16;5052843;28;20092;-86
2022/06/02 06:15:26;;;;;;;18.15;15.02;;;;;;;26.49;37.62;102133.38;5052448;28;20041;-86
2022/06/02 06:18:13;;;;;;;16.63;14.73;;;;;;;26.73;33.94;102135.13;5052674;28;20079;-87
2022/06/02 06:20:58;;;;;;;18.25;14.93;;;;;;;26.50;35.92;102075.94;5052467;28;20104;-87
2022/06/02 06:23:57;;;;;;;18.02;14.02;;;;;;;26.72;35.12;102075.16;5052453;28;20429;-85
2022/06/02 06:26:28;;;;;;;18.20;14.40;;;;;;;26.13;35.34;102124.16;5052456;28;20029;-86
2022/06/02 06:29:21;;;;;;;15.43;13.38;;;;;;;26.24;36.10;102144.97;5052320;28;20068;-86
2022/06/02 06:32:02;;;;;;;15.73;13.40;;;;;;;26.63;35.91;102146.91;5034627;28;20108;-86
2022/06/02 06:34:27;;;;;;;16.00;13.02;;;;;;;26.72;33.64;102148.56;5052188;28;20029;-89
2022/06/02 06:37:01;;;;;;;16.25;12.88;;;;;;;26.60;35.43;102095.09;5052361;28;20037;-87
2022/06/02 06:39:26;;;;;;;14.68;12.82;;;;;;;27.38;32.36;102149.94;5052477;28;20029;-85
2022/06/02 06:41:56;;;;;;;13.32;11.50;;;;;;;27.39;32.63;102144.47;5052459;28;20108;-87
2022/06/02 06:44:43;;;;;;;12.40;10.57;;;;;;;27.46;32.74;102139.28;5052308;28;20025;-86
2022/06/02 06:47:15;;;;;;;14.85;11.88;;;;;;;27.48;33.22;102121.34;5035385;28;20033;-87
2022/06/02 06:49:43;;;;;;;12.88;10.93;;;;;;;27.77;31.74;102159.66;5034311;28;20492;-88
2022/06/02 06:52:35;;;;;;;13.90;11.50;;;;;;;27.61;34.13;102158.72;5052583;28;20051;-89
2022/06/02 06:55:39;;;;;;;16.70;10.45;;;;;;;27.58;33.37;102155.63;5052307;28;20531;-85
2022/06/02 06:58:42;;;;;;;12.95;10.85;;;;;;;28.12;32.74;102159.03;4971284;28;20047;-85
2022/06/02 07:01:25;;;;;;;13.55;11.05;;;;;;;27.80;32.16;102169.91;4971586;28;20057;-84
2022/06/02 07:03:58;;;;;;;12.85;10.65;;;;;;;28.29;30.76;102143.78;4958319;28;20050;-85
2022/06/02 07:06:41;;;;;;;13.40;10.57;;;;;;;27.83;30.25;102169.59;4975255;28;20039;-85
2022/06/02 07:09:41;;;;;;;13.45;10.98;;;;;;;26.81;33.06;102179.34;4975253;28;20034;-86
2022/06/02 07:15:06;;;;;;;18.08;10.73;;;;;;;23.29;38.46;102177.00;4975356;28;20543;-85
2022/06/02 07:17:37;;;;;;;12.20;10.23;;;;;;;24.36;38.76;102175.28;4975166;28;20117;-86
2022/06/02 07:20:12;;;;;;;10.18;8.75;;;;;;;26.13;35.29;102185.03;4975037;28;20041;-86
2022/06/02 07:22:57;;;;;;;10.80;9.00;;;;;;;25.50;34.85;102181.16;4974882;28;20043;-85
2022/06/02 07:25:30;;;;;;;10.23;8.65;;;;;;;25.74;34.07;102183.03;4974840;28;20026;-84
2022/06/02 07:28:24;;;;;;;9.80;8.63;;;;;;;27.38;32.61;102185.25;4982309;28;20046;-81
2022/06/02 07:31:19;;;;;;;7.70;6.38;;;;;;;28.56;30.98;102187.53;5035205;28;20036;-81
2022/06/02 07:34:12;;;;;;;17.70;9.13;;;;;;;28.88;29.97;102196.16;5035489;28;20053;-79
2022/06/02 07:36:45;;;;;;;10.82;9.00;;;;;;;27.69;30.07;102193.22;5035726;28;20034;-79
2022/06/02 07:39:23;;;;;;;12.77;9.25;;;;;;;25.86;33.65;102179.09;5035535;28;20495;-78
2022/06/02 07:42:26;;;;;;;11.55;9.88;;;;;;;24.51;35.33;102197.50;5018029;28;20466;-80
2022/06/02 07:45:31;;;;;;;12.85;10.35;;;;;;;22.71;36.97;102148.22;5035070;28;20029;-80
2022/06/02 07:48:05;;;;;;;12.52;7.38;;;;;;;21.69;40.29;102195.22;4993540;28;20073;-81
2022/06/02 07:50:34;;;;;;;10.98;9.02;;;;;;;21.10;42.75;102203.88;4993799;28;20510;-79
2022/06/02 07:53:25;;;;;;;11.82;8.13;;;;;;;20.48;43.59;102163.59;4993761;28;20042;-80
2022/06/02 07:55:59;;;;;;;11.98;10.35;;;;;;;20.32;42.82;102200.75;4993841;28;20125;-79
2022/06/02 07:58:52;;;;;;;10.93;9.05;;;;;;;20.27;42.40;102202.94;4977121;28;20108;-79
2022/06/02 08:01:17;;;;;;;12.30;10.95;;;;;;;20.36;45.33;102203.97;4993606;28;20085;-79
2022/06/02 08:03:54;;;;;;;15.35;11.63;;;;;;;20.19;46.11;102210.59;4993838;28;20066;-79
2022/06/02 08:06:32;;;;;;;13.30;11.90;;;;;;;20.00;45.98;102203.38;4993774;28;20049;-79
2022/06/02 08:09:01;;;;;;;13.75;11.52;;;;;;;19.66;45.46;102179.03;4993467;28;20432;-79
2022/06/02 08:12:13;;;;;;;14.95;12.15;;;;;;;19.56;45.95;102204.31;4993661;28;20043;-81
2022/06/02 08:15:04;;;;;;;17.25;13.10;;;;;;;18.57;48.11;102168.28;4953220;28;20152;-80
2022/06/02 08:17:49;;;;;;;14.07;12.57;;;;;;;18.52;49.12;102195.75;4938723;29;20035;-79
2022/06/02 08:20:25;;;;;;;15.05;12.95;;;;;;;18.53;49.66;102216.56;4954760;29;20036;-81
2022/06/02 08:23:04;;;;;;;13.80;12.40;;;;;;;18.10;50.65;102137.84;4954542;28;20054;-79
2022/06/02 08:25:42;;;;;;;13.88;11.88;;;;;;;18.52;50.46;102207.03;4989437;28;20038;-81
2022/06/02 08:28:35;;;;;;;12.25;10.85;;;;;;;18.41;51.52;102182.66;4976386;28;20482;-77
2022/06/02 08:31:34;;;;;;;12.98;10.40;;;;;;;18.11;51.24;102112.53;4992511;28;20044;-78
2022/06/02 08:34:21;;;;;;;13.70;10.98;;;;;;;18.66;49.80;102208.66;4976792;28;20061;-80
2022/06/02 08:37:29;;;;;;;14.52;11.02;;;;;;;18.48;49.65;102182.03;4993196;28;20030;-75
2022/06/02 08:40:06;;;;;;;14.20;12.13;;;;;;;17.99;50.57;102171.75;4969821;28;20561;-76
2022/06/02 08:42:58;;;;;;;17.02;12.07;;;;;;;18.26;50.17;102210.75;4973233;28;20383;-74
2022/06/02 08:45:33;;;;;;;14.32;12.23;;;;;;;18.13;50.27;102213.44;4973451;28;20046;-76
2022/06/02 08:48:04;;;;;;;16.83;11.07;;;;;;;18.18;51.81;102218.31;4973298;28;20031;-76
2022/06/02 08:50:55;;;;;;;18.38;10.48;;;;;;;18.43;49.01;102217.34;4975415;28;20107;-77
2022/06/02 08:53:47;;;;;;;35.30;12.88;;;;;;;18.50;46.77;102229.03;4992961;28;20128;-79
2022/06/02 08:56:31;;;;;;;13.63;10.88;;;;;;;18.24;47.02;102221.31;4992741;28;20046;-77
2022/06/02 08:59:11;;;;;;;12.90;10.30;;;;;;;18.15;48.09;102229.84;4992657;28;20050;-76
2022/06/02 09:02:12;;;;;;;11.55;10.13;;;;;;;18.15;46.80;102214.16;4992429;28;20537;-75
2022/06/02 09:05:07;;;;;;;12.20;10.32;;;;;;;18.14;47.43;102228.16;4953824;29;20039;-77
2022/06/02 09:08:29;;;;;;;12.07;9.93;;;;;;;18.34;49.79;102227.53;4953739;29;20031;-77
2022/06/02 09:11:07;;;;;;;12.45;10.60;;;;;;;18.29;47.98;102231.47;4934318;29;20055;-79
2022/06/02 09:14:05;;;;;;;11.55;10.02;;;;;;;18.54;48.92;102222.63;4934373;29;20040;-79
2022/06/02 09:16:57;;;;;;;12.38;10.43;;;;;;;18.72;47.08;102223.06;4934270;29;20119;-78
2022/06/02 09:19:32;;;;;;;;;;;;;;;18.85;47.97;102223.78;4934890;29;20024;-76
2022/06/02 09:22:06;;;;;;;13.23;10.40;;;;;;;18.30;44.56;102222.66;4934447;29;19922;-78
2022/06/02 09:24:50;;;;;;;11.10;9.70;;;;;;;18.03;46.93;102199.38;4934172;29;20539;-79
2022/06/02 09:27:33;;;;;;;12.30;10.13;;;;;;;18.10;47.20;102220.69;4933291;29;20083;-77
2022/06/02 09:30:15;;;;;;;13.45;11.43;;;;;;;17.93;47.24;102214.88;4934174;29;20036;-74
2022/06/02 09:33:34;;;;;;;12.25;10.63;;;;;;;18.11;46.53;102215.34;4934200;29;20035;-79
2022/06/02 09:36:36;;;;;;;10.75;9.52;;;;;;;18.10;47.69;102218.91;4934161;29;20122;-77
2022/06/02 09:39:16;;;;;;;11.05;9.85;;;;;;;18.10;46.36;102213.66;4933845;29;20036;-76
2022/06/02 09:41:45;;;;;;;12.68;9.48;;;;;;;18.22;47.37;102210.16;4995190;28;20091;-77
2022/06/02 09:44:27;;;;;;;11.50;9.68;;;;;;;18.37;48.01;102191.66;5015578;28;20031;-73
2022/06/02 09:47:10;;;;;;;10.40;8.38;;;;;;;18.48;45.60;102202.97;5032918;28;20378;-79
2022/06/02 09:50:03;;;;;;;11.52;9.18;;;;;;;18.36;46.81;102209.13;5032805;28;20481;-76
2022/06/02 09:53:11;;;;;;;11.63;9.55;;;;;;;18.14;47.49;102209.88;5032724;28;20029;-74
2022/06/02 09:56:05;;;;;;;11.35;9.10;;;;;;;17.88;48.25;102203.91;5033014;28;20033;-74
2022/06/02 09:58:50;;;;;;;22.70;10.80;;;;;;;17.70;46.90;102195.63;5049738;28;20049;-75
2022/06/02 10:01:31;;;;;;;16.10;9.90;;;;;;;17.89;46.59;102205.56;5052674;28;20044;-77
2022/06/02 10:04:06;;;;;;;12.45;8.40;;;;;;;18.34;47.29;102203.19;5035181;28;20445;-76
2022/06/02 10:07:05;;;;;;;10.77;7.78;;;;;;;18.83;47.09;102202.16;5052653;28;20361;-77
2022/06/02 10:10:09;;;;;;;11.43;8.82;;;;;;;19.25;44.52;102197.16;5034942;28;20037;-78
2022/06/02 10:12:56;;;;;;;11.07;9.77;;;;;;;19.19;43.58;102153.97;5034684;28;20033;-80
2022/06/02 10:15:49;;;;;;;12.68;9.30;;;;;;;19.67;46.91;102190.38;5052859;28;20025;-76
2022/06/02 10:18:17;;;;;;;11.73;9.55;;;;;;;19.06;45.26;102119.22;5052572;28;20029;-77
2022/06/02 10:20:49;;;;;;;11.55;9.70;;;;;;;19.50;43.70;102196.91;5034713;28;20033;-79
2022/06/02 10:23:36;;;;;;;14.13;10.18;;;;;;;19.29;43.18;102193.38;5052608;28;20120;-74
2022/06/02 10:26:06;;;;;;;10.90;8.23;;;;;;;19.39;43.55;102194.31;5034961;28;20032;-79
2022/06/02 10:29:03;;;;;;;13.95;11.05;;;;;;;19.57;44.67;102194.69;5052614;28;20112;-74
2022/06/02 10:31:44;;;;;;;12.60;10.75;;;;;;;19.81;43.96;102192.72;5052536;28;20021;-77
2022/06/02 10:34:18;;;;;;;13.57;11.18;;;;;;;19.94;43.75;102188.13;5052296;28;20439;-75
2022/06/02 10:37:00;;;;;;;12.40;11.10;;;;;;;19.87;42.35;102186.16;5052620;28;20025;-74
2022/06/02 10:39:44;;;;;;;14.18;11.85;;;;;;;19.48;43.47;102190.97;5056552;28;20029;-74
2022/06/02 10:42:34;;;;;;;14.48;11.95;;;;;;;19.44;43.50;102186.91;5056465;28;20024;-75
2022/06/02 10:45:31;;;;;;;13.88;12.38;;;;;;;19.32;44.55;102180.03;5056636;28;20027;-78
2022/06/02 10:48:29;;;;;;;14.98;11.40;;;;;;;19.28;44.63;102191.72;5056067;28;20483;-74
2022/06/02 10:51:28;;;;;;;14.90;11.80;;;;;;;19.18;43.74;102173.25;4956285;29;20043;-75
2022/06/02 10:54:06;;;;;;;12.70;10.85;;;;;;;19.22;44.59;102176.47;4956237;29;20039;-80
2022/06/02 10:56:44;;;;;;;11.43;10.20;;;;;;;19.42;44.65;102178.34;4956143;29;20035;-79
2022/06/02 10:59:40;;;;;;;11.95;10.43;;;;;;;19.34;44.60;102173.72;4956042;29;20038;-79
2022/06/02 11:02:11;;;;;;;18.88;12.20;;;;;;;19.14;44.42;102166.59;4955716;29;20048;-79
2022/06/02 11:04:51;;;;;;;;;;;;;;;19.26;45.90;102172.63;4956778;28;20450;-79
2022/06/02 11:07:55;;;;;;;14.10;12.15;;;;;;;18.94;44.22;102168.13;4955901;28;20367;-79
2022/06/02 11:10:23;;;;;;;13.70;11.15;;;;;;;18.83;43.68;102168.13;4955712;28;20143;-79
2022/06/02 11:13:26;;;;;;;13.13;10.52;;;;;;;18.92;45.38;102159.56;4955956;28;20376;-80
2022/06/02 11:16:33;;;;;;;14.05;11.65;;;;;;;19.04;44.24;102163.84;4955514;28;20161;-81
2022/06/02 11:19:33;;;;;;;15.80;10.77;;;;;;;18.93;44.44;102129.81;4955724;28;20024;-82
2022/06/02 11:22:09;;;;;;;11.68;9.90;;;;;;;19.00;44.88;102122.31;4955591;29;20039;-82
2022/06/02 11:24:52;;;;;;;12.82;9.93;;;;;;;19.46;42.12;102159.63;4955732;29;20035;-82
2022/06/02 11:27:39;;;;;;;12.48;9.52;;;;;;;19.66;42.83;102165.09;4975074;28;20148;-82
2022/06/02 11:31:02;;;;;;;12.38;11.00;;;;;;;19.86;42.87;102159.13;5035534;28;20071;-82
2022/06/02 11:33:59;;;;;;;12.65;10.88;;;;;;;18.96;42.25;102086.84;4974577;28;20406;-83
2022/06/02 11:36:49;;;;;;;12.20;10.13;;;;;;;19.23;42.41;102152.78;4974875;28;20146;-83
2022/06/02 11:39:43;;;;;;;12.85;9.68;;;;;;;19.20;42.22;102155.63;4958620;28;20035;-82
2022/06/02 11:42:17;;;;;;;12.40;9.98;;;;;;;18.94;41.48;102134.09;4958370;28;20050;-81
2022/06/02 11:45:04;;;;;;;15.55;9.50;;;;;;;19.31;44.74;102150.38;4958653;28;20039;-82
2022/06/02 11:47:45;;;;;;;13.48;11.18;;;;;;;19.30;42.72;102153.97;4974523;28;20161;-82
2022/06/02 11:50:46;;;;;;;15.73;11.52;;;;;;;19.19;42.49;102159.22;4973341;28;20690;-81
2022/06/02 11:53:32;;;;;;;14.48;11.70;;;;;;;18.94;43.56;102123.63;4955313;29;20438;-81
2022/06/02 11:56:25;;;;;;;13.32;11.48;;;;;;;19.29;44.13;102148.84;4955177;29;20136;-82
2022/06/02 11:59:29;;;;;;;12.80;9.93;;;;;;;19.45;42.69;102152.72;4936022;28;20501;-81
2022/06/02 12:02:09;;;;;;;12.75;9.93;;;;;;;19.74;41.52;102139.13;4935698;29;20043;-80
2022/06/02 12:04:43;;;;;;;12.60;10.67;;;;;;;19.83;40.19;102111.31;4973024;28;20604;-82
2022/06/02 12:07:35;;;;;;;10.75;8.70;;;;;;;20.37;41.13;102131.34;4993656;28;20041;-81
2022/06/02 12:10:44;;;;;;;13.13;9.38;;;;;;;20.80;40.22;102131.16;4993704;28;20049;-82
2022/06/02 12:13:29;;;;;;;10.98;9.20;;;;;;;20.85;39.96;102129.84;4993481;28;20363;-82
2022/06/02 12:16:09;;;;;;;14.18;11.13;;;;;;;20.57;39.70;102125.25;4993597;28;20034;-82
2022/06/02 12:19:12;;;;;;;13.38;9.02;;;;;;;20.29;41.01;102119.69;4993308;28;20491;-81
2022/06/02 12:21:59;;;;;;;9.73;8.45;;;;;;;19.71;42.30;102081.72;4993522;28;20122;-81
2022/06/02 12:24:58;;;;;;;9.95;8.63;;;;;;;19.32;41.15;102088.34;4993335;28;20109;-81
2022/06/02 12:27:38;;;;;;;12.23;9.07;;;;;;;19.38;41.67;102080.84;5017460;28;20041;-81
2022/06/02 12:30:38;;;;;;;11.98;9.35;;;;;;;19.65;41.55;102074.34;5034484;28;20036;-82
2022/06/02 12:33:41;;;;;;;11.75;10.50;;;;;;;20.00;39.33;102101.13;5016305;28;20477;-82
2022/06/02 12:36:21;;;;;;;9.50;7.38;;;;;;;20.21;42.53;102101.13;5034660;28;20042;-81
2022/06/02 12:39:11;;;;;;;11.50;8.40;;;;;;;20.35;43.88;102094.72;5033519;28;20049;-78
2022/06/02 12:41:59;;;;;;;12.05;8.20;;;;;;;20.18;40.82;102069.91;5016774;28;20040;-82
2022/06/02 12:44:52;;;;;;;10.30;8.65;;;;;;;20.11;41.31;102104.66;5034301;28;20021;-81
2022/06/02 12:48:06;;;;;;;12.27;10.63;;;;;;;19.66;40.23;102105.66;5016485;28;20465;-78
2022/06/02 12:50:37;;;;;;;10.15;7.80;;;;;;;19.59;43.69;102099.28;5033915;28;20026;-78
2022/06/02 12:53:06;;;;;;;;;;;;;;;19.70;43.71;102095.78;5017092;28;20044;-78
2022/06/02 12:55:59;;;;;;;11.43;9.02;;;;;;;19.70;43.58;102088.75;5034124;28;20335;-78
2022/06/02 12:59:01;;;;;;;9.20;7.78;;;;;;;19.58;43.26;102050.44;5050037;28;20503;-78
2022/06/02 13:01:29;;;;;;;11.40;8.63;;;;;;;19.64;41.84;102057.78;5053759;28;20136;-79
2022/06/02 13:04:12;;;;;;;11.30;8.13;;;;;;;19.58;42.08;102060.09;5053979;28;20064;-79
2022/06/02 13:07:18;;;;;;;14.20;9.43;;;;;;;19.45;42.72;102044.50;5053881;28;20089;-78
2022/06/02 13:10:19;;;;;;;12.93;10.48;;;;;;;19.41;41.43;102056.19;5053297;28;20117;-78
2022/06/02 13:13:06;;;;;;;13.32;10.10;;;;;;;19.51;41.49;102077.22;5036184;28;20025;-76
2022/06/02 13:15:52;;;;;;;12.73;9.73;;;;;;;19.26;40.51;102046.94;5053589;28;20025;-80
2022/06/02 13:22:55;;;;;;;11.90;9.10;;;;;;;19.47;42.00;102084.53;5053478;28;20048;-80
2022/06/02 13:26:00;;;;;;;11.30;8.38;;;;;;;19.66;41.81;102078.63;5053595;28;20079;-82
2022/06/02 13:32:49;;;;;;;11.80;9.85;;;;;;;19.69;40.15;102067.91;5053499;28;20385;-77
2022/06/02 13:35:52;;;;;;;16.83;10.50;;;;;;;19.70;41.38;102078.25;5053056;28;20040;-79
2022/06/02 13:38:57;;;;;;;10.27;7.35;;;;;;;19.70;42.81;102073.03;5035366;28;20060;-79
2022/06/02 13:41:35;;;;;;;11.85;9.88;;;;;;;19.71;39.65;102072.06;5053235;28;20384;-80
2022/06/02 13:44:35;;;;;;;12.90;9.40;;;;;;;19.85;40.92;102070.09;5052355;28;20512;-78
2022/06/02 13:47:26;;;;;;;12.05;9.75;;;;;;;19.91;40.08;102062.56;5052900;28;20025;-78
2022/06/02 13:50:10;;;;;;;10.10;8.05;;;;;;;20.19;41.04;102068.13;4991379;28;20494;-78
2022/06/02 13:52:38;;;;;;;11.32;9.23;;;;;;;19.84;38.10;102026.47;4975190;28;20609;-80
2022/06/02 13:58:45;;;;;;;11.60;7.95;;;;;;;19.98;41.17;102073.38;4991768;28;20046;-80
2022/06/02 14:01:45;;;;;;;9.93;7.60;;;;;;;20.09;40.72;102069.84;4991517;28;20043;-78
2022/06/02 14:04:29;;;;;;;9.90;7.65;;;;;;;20.17;40.75;102062.19;4975039;28;20038;-79